| time (UTC) | temp F | wind direction | speed knots | gust knots | rain 1hr in | rain 24hr in | rain mn in | humidity % | barometer mb |
| 20260506155727 | 53 | 155 | 0.9 | 1.7 | 0.00 | 0.09 | 0.09 | 80 | 1009.4 |
| 20260506155226 | 53 | 154 | 0.0 | 7.0 | 0.00 | 0.09 | 0.09 | 80 | 1009.5 |
| 20260506154728 | 53 | 158 | 3.5 | 7.0 | 0.00 | 0.09 | 0.09 | 81 | 1009.4 |
| 20260506154228 | 53 | 158 | 1.7 | 7.0 | 0.00 | 0.09 | 0.09 | 81 | 1009.4 |
| 20260506153727 | 53 | 157 | 3.5 | 7.0 | 0.00 | 0.09 | 0.09 | 82 | 1009.5 |
| 20260506153221 | 53 | 155 | 0.0 | 0.0 | 0.00 | 0.09 | 0.09 | 83 | 1009.5 |
| 20260506152721 | 53 | 155 | 0.0 | 0.0 | 0.00 | 0.09 | 0.09 | 83 | 1009.5 |
| 20260506152218 | 53 | 155 | 0.0 | 5.2 | 0.00 | 0.09 | 0.09 | 83 | 1009.5 |
| 20260506151712 | 53 | 155 | 2.6 | 5.2 | 0.00 | 0.09 | 0.09 | 83 | 1009.5 |
| 20260506151218 | 53 | 152 | 0.0 | 0.0 | 0.00 | 0.09 | 0.09 | 84 | 1009.4 |
| 20260506150731 | 52 | 153 | 0.0 | 0.0 | 0.00 | 0.09 | 0.09 | 83 | 1009.4 |
| 20260506150230 | 53 | 152 | 0.0 | 0.0 | 0.00 | 0.09 | 0.09 | 84 | 1009.5 |
| 20260506145725 | 52 | 152 | 0.0 | 1.7 | 0.00 | 0.09 | 0.09 | 84 | 1009.4 |
| 20260506145220 | 52 | 151 | 0.9 | 4.3 | 0.00 | 0.09 | 0.09 | 84 | 1009.4 |
| 20260506144719 | 52 | 155 | 2.6 | 4.3 | 0.00 | 0.09 | 0.09 | 84 | 1009.4 |
| 20260506144217 | 52 | 154 | 2.6 | 3.5 | 0.00 | 0.09 | 0.09 | 84 | 1009.4 |
| 20260506143714 | 52 | 147 | 0.9 | 1.7 | 0.00 | 0.09 | 0.09 | 84 | 1009.3 |
| 20260506143233 | 52 | 150 | 0.9 | 0.9 | 0.00 | 0.09 | 0.09 | 84 | 1009.3 |
| 20260506142727 | 52 | 155 | 0.0 | 1.7 | 0.00 | 0.09 | 0.09 | 84 | 1009.3 |
| 20260506142223 | 52 | 156 | 0.9 | 7.8 | 0.00 | 0.09 | 0.09 | 84 | 1009.3 |
| 20260506141716 | 52 | 150 | 4.3 | 7.8 | 0.00 | 0.09 | 0.09 | 84 | 1009.3 |
| 20260506141232 | 52 | 148 | 0.0 | 4.3 | 0.00 | 0.09 | 0.09 | 85 | 1009.2 |
| 20260506140715 | 52 | 153 | 0.0 | 4.3 | 0.00 | 0.09 | 0.09 | 85 | 1009.2 |
| 20260506140221 | 52 | 153 | 0.9 | 0.9 | 0.00 | 0.09 | 0.09 | 85 | 1009.1 |
| 20260506135734 | 52 | 153 | 0.9 | 5.2 | 0.00 | 0.09 | 0.09 | 85 | 1009.1 |
| 20260506135228 | 52 | 153 | 2.6 | 5.2 | 0.00 | 0.09 | 0.09 | 85 | 1009.1 |
| 20260506134730 | 52 | 149 | 0.0 | 0.0 | 0.00 | 0.09 | 0.09 | 86 | 1009.1 |
| 20260506134229 | 52 | 155 | 0.0 | 0.9 | 0.00 | 0.09 | 0.09 | 86 | 1009.1 |
| 20260506133724 | 51 | 155 | 0.9 | 0.9 | 0.00 | 0.09 | 0.09 | 87 | 1009.1 |
| 20260506133226 | 51 | 155 | 0.0 | 0.9 | 0.00 | 0.09 | 0.09 | 87 | 1009.1 |
| 20260506132717 | 51 | 155 | 0.9 | 0.9 | 0.01 | 0.09 | 0.09 | 88 | 1009.0 |
| 20260506132233 | 51 | 155 | 0.0 | 0.0 | 0.02 | 0.09 | 0.09 | 88 | 1009.0 |
| 20260506131729 | 51 | 155 | 0.0 | 0.0 | 0.03 | 0.09 | 0.09 | 88 | 1009.1 |
| 20260506131230 | 51 | 155 | 0.0 | 0.0 | 0.03 | 0.09 | 0.09 | 88 | 1009.1 |
| 20260506130713 | 51 | 155 | 0.0 | 1.7 | 0.04 | 0.09 | 0.09 | 88 | 1009.1 |
| 20260506130219 | 50 | 154 | 0.9 | 1.7 | 0.05 | 0.09 | 0.09 | 88 | 1009.1 |
| 20260506125718 | 50 | 153 | 0.0 | 0.0 | 0.06 | 0.09 | 0.09 | 88 | 1009.1 |
| 20260506125233 | 50 | 160 | 0.0 | 0.0 | 0.06 | 0.09 | 0.09 | 88 | 1009.1 |
| 20260506124734 | 50 | 161 | 0.0 | 0.0 | 0.06 | 0.09 | 0.09 | 88 | 1009.1 |
| 20260506124216 | 50 | 161 | 0.0 | 0.0 | 0.06 | 0.09 | 0.09 | 88 | 1009.0 |
| 20260506123730 | 50 | 160 | 0.0 | 0.0 | 0.07 | 0.09 | 0.09 | 88 | 1009.0 |
| 20260506123224 | 50 | 153 | 0.0 | 0.0 | 0.07 | 0.09 | 0.09 | 88 | 1009.0 |
| 20260506122723 | 50 | 142 | 0.0 | 4.3 | 0.07 | 0.09 | 0.09 | 88 | 1008.8 |
| 20260506122221 | 50 | 155 | 2.6 | 4.3 | 0.06 | 0.08 | 0.08 | 88 | 1008.8 |
| 20260506121716 | 50 | 153 | 0.0 | 0.9 | 0.05 | 0.06 | 0.06 | 88 | 1008.7 |
| 20260506121217 | 50 | 151 | 0.9 | 6.1 | 0.05 | 0.06 | 0.06 | 88 | 1008.7 |
| 20260506120716 | 50 | 170 | 3.5 | 6.1 | 0.04 | 0.06 | 0.06 | 88 | 1008.7 |
| 20260506120215 | 50 | 150 | 0.0 | 0.0 | 0.03 | 0.05 | 0.05 | 88 | 1008.7 |
| 20260506115727 | 50 | 150 | 0.0 | 8.7 | 0.02 | 0.04 | 0.04 | 88 | 1008.6 |
| 20260506115225 | 50 | 62 | 4.3 | 8.7 | 0.02 | 0.04 | 0.04 | 88 | 1008.6 |
| 20260506114726 | 51 | 150 | 0.0 | 0.0 | 0.02 | 0.03 | 0.03 | 88 | 1008.5 |
| 20260506114219 | 51 | 155 | 0.0 | 0.0 | 0.02 | 0.03 | 0.03 | 88 | 1008.5 |
| 20260506113716 | 51 | 140 | 0.0 | 1.7 | 0.01 | 0.02 | 0.02 | 88 | 1008.3 |
| 20260506113213 | 52 | 151 | 1.7 | 7.0 | 0.01 | 0.02 | 0.02 | 87 | 1008.1 |
| 20260506112730 | 52 | 139 | 4.3 | 7.0 | 0.00 | 0.02 | 0.02 | 87 | 1008.1 |
| 20260506112225 | 53 | 157 | 0.9 | 7.0 | 0.00 | 0.02 | 0.02 | 86 | 1007.9 |
| 20260506111725 | 53 | 157 | 3.5 | 7.0 | 0.00 | 0.02 | 0.02 | 86 | 1007.7 |
| 20260506111226 | 54 | 142 | 0.0 | 0.9 | 0.00 | 0.02 | 0.02 | 86 | 1007.6 |
| 20260506110720 | 54 | 99 | 0.9 | 0.9 | 0.00 | 0.03 | 0.02 | 85 | 1007.5 |
| 20260506110215 | 54 | 148 | 0.0 | 2.6 | 0.00 | 0.03 | 0.02 | 85 | 1007.5 |
| 20260506105731 | 55 | 153 | 1.7 | 2.6 | 0.00 | 0.03 | 0.02 | 85 | 1007.4 |
| 20260506105223 | 55 | 148 | 0.0 | 0.0 | 0.01 | 0.03 | 0.02 | 85 | 1007.4 |
| 20260506104719 | 55 | 147 | 0.0 | 0.0 | 0.01 | 0.03 | 0.02 | 85 | 1007.4 |
| 20260506104232 | 55 | 148 | 0.0 | 0.0 | 0.01 | 0.03 | 0.02 | 84 | 1007.4 |
| 20260506103728 | 55 | 148 | 0.0 | 0.0 | 0.01 | 0.03 | 0.02 | 84 | 1007.4 |
| 20260506103220 | 55 | 153 | 0.0 | 0.0 | 0.01 | 0.03 | 0.02 | 85 | 1007.3 |
| 20260506102718 | 55 | 153 | 0.0 | 0.9 | 0.01 | 0.03 | 0.02 | 85 | 1007.3 |
| 20260506102220 | 55 | 153 | 0.9 | 0.9 | 0.01 | 0.03 | 0.02 | 85 | 1007.3 |
| 20260506101723 | 55 | 153 | 0.0 | 0.0 | 0.01 | 0.03 | 0.02 | 85 | 1007.3 |
| 20260506101220 | 55 | 153 | 0.0 | 0.0 | 0.02 | 0.03 | 0.02 | 85 | 1007.2 |
| 20260506100731 | 55 | 153 | 0.0 | 0.0 | 0.02 | 0.03 | 0.02 | 86 | 1007.3 |
| 20260506100223 | 55 | 153 | 0.0 | 0.0 | 0.02 | 0.03 | 0.02 | 86 | 1007.2 |
| 20260506095718 | 54 | 155 | 0.0 | 0.0 | 0.02 | 0.03 | 0.02 | 86 | 1007.1 |
| 20260506095220 | 55 | 159 | 0.0 | 0.0 | 0.01 | 0.02 | 0.01 | 87 | 1007.0 |
| 20260506094722 | 54 | 159 | 0.0 | 0.0 | 0.01 | 0.02 | 0.01 | 86 | 1007.1 |
| 20260506094225 | 54 | 159 | 0.0 | 0.0 | 0.01 | 0.02 | 0.01 | 87 | 1007.1 |
| 20260506093723 | 54 | 159 | 0.0 | 0.0 | 0.01 | 0.02 | 0.01 | 87 | 1007.2 |
| 20260506093230 | 54 | 159 | 0.0 | 0.0 | 0.01 | 0.02 | 0.01 | 86 | 1007.2 |
| 20260506092725 | 54 | 159 | 0.0 | 0.0 | 0.01 | 0.02 | 0.01 | 86 | 1007.2 |
| 20260506092225 | 54 | 159 | 0.0 | 0.0 | 0.01 | 0.02 | 0.01 | 87 | 1007.2 |
| 20260506091720 | 53 | 159 | 0.0 | 0.0 | 0.01 | 0.02 | 0.01 | 87 | 1007.1 |
| 20260506091216 | 53 | 159 | 0.0 | 0.0 | 0.00 | 0.02 | 0.00 | 86 | 1007.0 |
| 20260506090734 | 53 | 159 | 0.0 | 0.0 | 0.00 | 0.02 | 0.00 | 86 | 1006.9 |
| 20260506090227 | 53 | 159 | 0.0 | 0.0 | 0.00 | 0.02 | 0.00 | 86 | 1006.9 |
| 20260506085725 | 53 | 159 | 0.0 | 0.0 | 0.00 | 0.02 | 0.00 | 86 | 1006.9 |
| 20260506085223 | 53 | 159 | 0.0 | 0.0 | 0.00 | 0.02 | 0.00 | 86 | 1006.9 |
| 20260506084717 | 54 | 159 | 0.0 | 0.0 | 0.00 | 0.02 | 0.00 | 85 | 1006.9 |
| 20260506084223 | 54 | 159 | 0.0 | 0.0 | 0.00 | 0.02 | 0.00 | 85 | 1006.9 |
| 20260506083720 | 54 | 159 | 0.0 | 0.0 | 0.00 | 0.02 | 0.00 | 84 | 1006.8 |
| 20260506083230 | 54 | 159 | 0.0 | 0.0 | 0.00 | 0.02 | 0.00 | 84 | 1006.8 |
| 20260506082726 | 54 | 159 | 0.0 | 0.0 | 0.00 | 0.02 | 0.00 | 84 | 1006.9 |
| 20260506082222 | 54 | 159 | 0.0 | 0.0 | 0.00 | 0.02 | 0.00 | 84 | 1006.9 |
| 20260506081721 | 54 | 159 | 0.0 | 0.0 | 0.00 | 0.02 | 0.00 | 85 | 1006.9 |
| 20260506081219 | 54 | 159 | 0.0 | 0.0 | 0.00 | 0.02 | 0.00 | 85 | 1006.9 |
| 20260506080716 | 54 | 159 | 0.0 | 0.0 | 0.00 | 0.02 | 0.00 | 86 | 1006.8 |
| 20260506080221 | 53 | 159 | 0.0 | 0.0 | 0.00 | 0.02 | 0.00 | 86 | 1006.8 |
| 20260506073221 | 52 | 159 | 0.0 | 0.0 | 0.00 | 0.02 | 0.00 | 88 | 1006.8 |
| 20260506072728 | 52 | 159 | 0.0 | 0.0 | 0.00 | 0.02 | 0.00 | 88 | 1006.8 |
| 20260506072231 | 52 | 159 | 0.0 | 0.0 | 0.00 | 0.02 | 0.00 | 88 | 1006.8 |
| 20260506071732 | 52 | 159 | 0.0 | 0.0 | 0.00 | 0.02 | 0.00 | 88 | 1006.9 |
| 20260506071228 | 52 | 159 | 0.0 | 0.0 | 0.00 | 0.02 | 0.00 | 88 | 1006.9 |
| 20260506070729 | 52 | 159 | 0.0 | 0.0 | 0.00 | 0.02 | 0.00 | 88 | 1006.9 |
| 20260506070227 | 52 | 159 | 0.0 | 0.0 | 0.00 | 0.02 | 0.00 | 88 | 1006.9 |
| 20260506062224 | 50 | 159 | 0.0 | 0.0 | 0.00 | 0.02 | 0.00 | 88 | 1006.8 |
| 20260506061725 | 50 | 159 | 0.0 | 0.0 | 0.00 | 0.02 | 0.00 | 88 | 1006.8 |
| 20260506061223 | 50 | 159 | 0.0 | 0.0 | 0.00 | 0.02 | 0.00 | 88 | 1006.9 |
| 20260506060721 | 50 | 159 | 0.0 | 0.0 | 0.00 | 0.02 | 0.00 | 88 | 1006.9 |
| 20260506060225 | 49 | 159 | 0.0 | 0.0 | 0.00 | 0.02 | 0.00 | 88 | 1006.9 |
| 20260506051223 | 48 | 159 | 0.0 | 0.0 | 0.00 | 0.02 | 0.00 | 92 | 1007.1 |
| 20260506050723 | 48 | 159 | 0.0 | 0.0 | 0.00 | 0.02 | 0.00 | 88 | 1007.2 |
| 20260506050223 | 48 | 159 | 0.0 | 0.0 | 0.00 | 0.02 | 0.00 | 92 | 1007.0 |
| 20260506044716 | 48 | 159 | 0.0 | 0.0 | 0.00 | 0.02 | 0.00 | 88 | 1007.0 |
| 20260506044229 | 48 | 159 | 0.0 | 0.0 | 0.00 | 0.02 | 0.00 | 88 | 1007.0 |
| 20260506043723 | 48 | 159 | 0.0 | 0.0 | 0.00 | 0.02 | 0.00 | 88 | 1007.0 |
| 20260506043216 | 49 | 159 | 0.0 | 0.0 | 0.00 | 0.02 | 0.00 | 88 | 1007.0 |
| 20260506042720 | 48 | 159 | 0.0 | 0.0 | 0.00 | 0.02 | 0.00 | 88 | 1007.0 |
| 20260506042219 | 48 | 159 | 0.0 | 0.0 | 0.00 | 0.02 | 0.00 | 88 | 1007.0 |
| 20260506041713 | 49 | 159 | 0.0 | 0.0 | 0.00 | 0.02 | 0.00 | 88 | 1007.1 |
| 20260506041216 | 49 | 159 | 0.0 | 0.0 | 0.00 | 0.02 | 0.00 | 88 | 1007.0 |
| 20260506040731 | 49 | 159 | 0.0 | 0.0 | 0.00 | 0.02 | 0.00 | 88 | 1007.0 |
| 20260506040218 | 49 | 159 | 0.0 | 0.0 | 0.00 | 0.02 | 0.00 | 88 | 1007.0 |
| 20260506035718 | 49 | 159 | 0.0 | 0.0 | 0.00 | 0.02 | 0.00 | 88 | 1007.0 |
| 20260506035215 | 49 | 159 | 0.0 | 0.0 | 0.00 | 0.02 | 0.00 | 88 | 1007.2 |
| 20260506034715 | 49 | 159 | 0.0 | 0.0 | 0.00 | 0.02 | 0.00 | 88 | 1007.2 |
| 20260506034216 | 49 | 159 | 0.0 | 0.0 | 0.00 | 0.02 | 0.00 | 88 | 1007.3 |
| 20260506033718 | 49 | 159 | 0.0 | 0.0 | 0.00 | 0.02 | 0.00 | 88 | 1007.3 |
| 20260506033219 | 48 | 159 | 0.0 | 0.0 | 0.00 | 0.02 | 0.00 | 88 | 1007.3 |
| 20260506032717 | 48 | 159 | 0.0 | 0.0 | 0.00 | 0.02 | 0.00 | 88 | 1007.4 |
| 20260506032222 | 48 | 159 | 0.0 | 0.0 | 0.00 | 0.02 | 0.00 | 88 | 1007.4 |
| 20260506031715 | 48 | 159 | 0.0 | 0.0 | 0.00 | 0.02 | 0.00 | 88 | 1007.5 |
| 20260506031230 | 48 | 159 | 0.0 | 0.0 | 0.00 | 0.02 | 0.00 | 88 | 1007.6 |
| 20260506030725 | 48 | 159 | 0.0 | 0.0 | 0.00 | 0.02 | 0.00 | 88 | 1007.6 |
| 20260506030223 | 48 | 159 | 0.0 | 0.0 | 0.00 | 0.02 | 0.00 | 88 | 1007.6 |
| 20260506025722 | 48 | 159 | 0.0 | 0.0 | 0.00 | 0.02 | 0.00 | 89 | 1007.7 |
| 20260506025216 | 48 | 159 | 0.0 | 0.0 | 0.00 | 0.02 | 0.00 | 89 | 1007.9 |
| 20260506024731 | 49 | 159 | 0.0 | 0.0 | 0.00 | 0.02 | 0.00 | 88 | 1007.9 |
| 20260506024228 | 48 | 159 | 0.0 | 0.0 | 0.00 | 0.02 | 0.00 | 88 | 1007.9 |
| 20260506023726 | 48 | 159 | 0.0 | 0.0 | 0.00 | 0.02 | 0.00 | 89 | 1007.9 |
| 20260506023224 | 49 | 159 | 0.0 | 0.0 | 0.00 | 0.02 | 0.00 | 88 | 1008.0 |
| 20260506022724 | 49 | 159 | 0.0 | 0.0 | 0.00 | 0.02 | 0.00 | 88 | 1008.0 |
| 20260506022226 | 49 | 159 | 0.0 | 0.0 | 0.00 | 0.02 | 0.00 | 88 | 1008.0 |
| 20260506021721 | 49 | 159 | 0.0 | 0.0 | 0.00 | 0.02 | 0.00 | 88 | 1008.1 |
| 20260506021221 | 49 | 159 | 0.0 | 0.0 | 0.00 | 0.02 | 0.00 | 89 | 1008.0 |
| 20260506020719 | 49 | 159 | 0.0 | 0.0 | 0.00 | 0.02 | 0.00 | 88 | 1008.0 |
| 20260506020222 | 49 | 159 | 0.0 | 0.0 | 0.00 | 0.02 | 0.00 | 88 | 1008.0 |
| 20260506015733 | 49 | 159 | 0.0 | 0.0 | 0.00 | 0.02 | 0.00 | 88 | 1008.0 |
| 20260506015228 | 50 | 159 | 0.0 | 0.0 | 0.00 | 0.02 | 0.00 | 88 | 1008.1 |
| 20260506014726 | 50 | 159 | 0.0 | 0.0 | 0.00 | 0.02 | 0.00 | 88 | 1008.3 |
| 20260506014221 | 50 | 159 | 0.0 | 0.0 | 0.00 | 0.02 | 0.00 | 88 | 1008.3 |
| 20260506013720 | 50 | 159 | 0.0 | 0.0 | 0.00 | 0.02 | 0.00 | 88 | 1008.5 |
| 20260506013217 | 50 | 159 | 0.0 | 0.0 | 0.00 | 0.02 | 0.00 | 88 | 1008.5 |
| 20260506012712 | 50 | 159 | 0.0 | 0.0 | 0.00 | 0.02 | 0.00 | 88 | 1008.6 |
| 20260506012234 | 50 | 159 | 0.0 | 0.0 | 0.00 | 0.02 | 0.00 | 88 | 1008.7 |
| 20260506011731 | 50 | 159 | 0.0 | 0.0 | 0.00 | 0.02 | 0.00 | 88 | 1008.8 |
| 20260506011230 | 50 | 159 | 0.0 | 0.0 | 0.00 | 0.02 | 0.00 | 88 | 1008.9 |
| 20260506010723 | 50 | 159 | 0.0 | 0.0 | 0.00 | 0.02 | 0.00 | 88 | 1008.9 |
| 20260506010225 | 50 | 159 | 0.0 | 0.0 | 0.00 | 0.02 | 0.00 | 88 | 1008.9 |
| 20260506005724 | 50 | 159 | 0.0 | 0.0 | 0.00 | 0.02 | 0.00 | 88 | 1009.0 |
| 20260506005222 | 50 | 159 | 0.0 | 0.0 | 0.00 | 0.02 | 0.00 | 88 | 1008.9 |
| 20260506004722 | 50 | 159 | 0.0 | 0.0 | 0.00 | 0.02 | 0.00 | 88 | 1008.9 |
| 20260506004217 | 50 | 159 | 0.0 | 0.0 | 0.00 | 0.02 | 0.00 | 88 | 1009.0 |
| 20260506003735 | 50 | 159 | 0.0 | 0.0 | 0.00 | 0.02 | 0.00 | 88 | 1009.1 |
| 20260506003230 | 50 | 159 | 0.0 | 0.0 | 0.00 | 0.02 | 0.00 | 88 | 1009.1 |
| 20260506002727 | 50 | 159 | 0.0 | 0.0 | 0.00 | 0.02 | 0.00 | 88 | 1009.1 |
| 20260506002226 | 50 | 159 | 0.0 | 0.0 | 0.00 | 0.02 | 0.00 | 88 | 1009.3 |
| 20260506001727 | 50 | 159 | 0.0 | 0.0 | 0.00 | 0.02 | 0.00 | 88 | 1009.3 |
| 20260506001223 | 50 | 159 | 0.0 | 0.0 | 0.00 | 0.02 | 0.00 | 88 | 1009.3 |
| 20260506000733 | 50 | 159 | 0.0 | 0.0 | 0.00 | 0.02 | 0.00 | 88 | 1009.2 |
| 20260506000222 | 50 | 159 | 0.0 | 0.0 | 0.00 | 0.02 | 0.00 | 88 | 1009.2 |
| 20260505235724 | 50 | 159 | 0.0 | 0.0 | 0.00 | 0.02 | 0.00 | 88 | 1009.3 |
| 20260505235225 | 50 | 159 | 0.0 | 0.0 | 0.00 | 0.02 | 0.00 | 88 | 1009.3 |
| 20260505234720 | 50 | 159 | 0.0 | 0.0 | 0.00 | 0.02 | 0.00 | 88 | 1009.4 |
| 20260505234219 | 50 | 159 | 0.0 | 0.0 | 0.00 | 0.02 | 0.00 | 88 | 1009.4 |
| 20260505233715 | 50 | 159 | 0.0 | 0.0 | 0.00 | 0.02 | 0.00 | 88 | 1009.5 |
| 20260505233216 | 50 | 159 | 0.0 | 0.0 | 0.00 | 0.02 | 0.00 | 88 | 1009.6 |
| 20260505232730 | 50 | 159 | 0.0 | 0.0 | 0.00 | 0.02 | 0.00 | 88 | 1009.6 |
| 20260505232229 | 50 | 159 | 0.0 | 0.0 | 0.00 | 0.02 | 0.00 | 88 | 1009.6 |
| 20260505231725 | 50 | 159 | 0.0 | 0.0 | 0.00 | 0.02 | 0.00 | 88 | 1009.7 |
| 20260505231222 | 50 | 159 | 0.0 | 0.0 | 0.00 | 0.02 | 0.00 | 88 | 1009.7 |
| 20260505230716 | 50 | 159 | 0.0 | 0.0 | 0.00 | 0.02 | 0.00 | 88 | 1009.8 |
| 20260505230215 | 50 | 159 | 0.0 | 0.0 | 0.00 | 0.02 | 0.00 | 88 | 1009.8 |
| 20260505225732 | 50 | 159 | 0.0 | 0.0 | 0.00 | 0.02 | 0.00 | 88 | 1009.9 |
| 20260505225230 | 50 | 159 | 0.0 | 0.0 | 0.00 | 0.02 | 0.00 | 88 | 1009.8 |
| 20260505224717 | 50 | 159 | 0.0 | 0.0 | 0.00 | 0.02 | 0.00 | 88 | 1009.8 |
| 20260505224215 | 50 | 159 | 0.0 | 0.0 | 0.00 | 0.02 | 0.00 | 88 | 1009.8 |
| 20260505223730 | 50 | 159 | 0.0 | 0.0 | 0.00 | 0.02 | 0.00 | 88 | 1009.9 |
| 20260505223230 | 50 | 159 | 0.0 | 0.0 | 0.00 | 0.02 | 0.00 | 88 | 1009.8 |
| 20260505222725 | 50 | 159 | 0.0 | 0.0 | 0.00 | 0.02 | 0.00 | 88 | 1009.8 |
| 20260505222221 | 50 | 159 | 0.0 | 0.0 | 0.00 | 0.02 | 0.00 | 88 | 1009.8 |
| 20260505221718 | 50 | 159 | 0.0 | 0.0 | 0.00 | 0.02 | 0.00 | 88 | 1009.8 |
| 20260505221215 | 50 | 159 | 0.0 | 0.0 | 0.00 | 0.02 | 0.00 | 88 | 1009.8 |
| 20260505220729 | 50 | 159 | 0.0 | 0.0 | 0.00 | 0.02 | 0.00 | 88 | 1009.8 |
| 20260505220234 | 50 | 159 | 0.0 | 0.0 | 0.00 | 0.02 | 0.00 | 88 | 1009.8 |
| 20260505215729 | 51 | 159 | 0.0 | 0.0 | 0.00 | 0.02 | 0.02 | 88 | 1009.9 |
| 20260505215225 | 51 | 159 | 0.0 | 0.0 | 0.00 | 0.02 | 0.02 | 88 | 1009.9 |
| 20260505214727 | 51 | 159 | 0.0 | 0.0 | 0.00 | 0.02 | 0.02 | 88 | 1009.8 |
| 20260505214222 | 51 | 159 | 0.0 | 0.0 | 0.00 | 0.02 | 0.02 | 88 | 1009.9 |
| 20260505213716 | 51 | 159 | 0.0 | 0.0 | 0.00 | 0.02 | 0.02 | 88 | 1009.9 |
| 20260505213217 | 51 | 159 | 0.0 | 0.0 | 0.00 | 0.02 | 0.02 | 88 | 1009.9 |
| 20260505212714 | 51 | 159 | 0.0 | 0.0 | 0.00 | 0.02 | 0.02 | 88 | 1009.9 |
| 20260505212221 | 51 | 159 | 0.0 | 0.0 | 0.00 | 0.02 | 0.02 | 88 | 1010.0 |
| 20260505211717 | 51 | 159 | 0.0 | 0.0 | 0.00 | 0.02 | 0.02 | 88 | 1010.1 |
| 20260505211233 | 51 | 159 | 0.0 | 0.0 | 0.00 | 0.02 | 0.02 | 88 | 1010.1 |
| 20260505210730 | 51 | 159 | 0.0 | 0.0 | 0.00 | 0.02 | 0.02 | 87 | 1010.0 |
| 20260505210226 | 51 | 159 | 0.0 | 0.0 | 0.00 | 0.02 | 0.02 | 88 | 1010.0 |
| 20260505205725 | 52 | 159 | 0.0 | 0.0 | 0.00 | 0.02 | 0.02 | 88 | 1010.0 |
| 20260505205220 | 52 | 159 | 0.0 | 0.0 | 0.00 | 0.02 | 0.02 | 87 | 1010.0 |
| 20260505204736 | 52 | 159 | 0.0 | 0.0 | 0.00 | 0.02 | 0.02 | 87 | 1010.1 |
| 20260505204227 | 52 | 159 | 0.0 | 0.0 | 0.00 | 0.02 | 0.02 | 87 | 1010.2 |
| 20260505203723 | 52 | 159 | 0.0 | 0.0 | 0.00 | 0.02 | 0.02 | 87 | 1010.1 |
| 20260505203220 | 52 | 159 | 0.0 | 0.0 | 0.00 | 0.02 | 0.02 | 87 | 1010.0 |
| 20260505202732 | 52 | 159 | 0.0 | 0.0 | 0.00 | 0.02 | 0.02 | 88 | 1009.9 |
| 20260505202227 | 52 | 159 | 0.0 | 0.0 | 0.00 | 0.02 | 0.02 | 87 | 1009.9 |
| 20260505201724 | 52 | 159 | 0.0 | 0.0 | 0.00 | 0.02 | 0.02 | 87 | 1009.8 |
| 20260505201215 | 53 | 159 | 0.0 | 0.0 | 0.00 | 0.02 | 0.02 | 87 | 1009.8 |
| 20260505200713 | 53 | 159 | 0.0 | 0.0 | 0.00 | 0.02 | 0.02 | 87 | 1009.7 |
| 20260505200224 | 53 | 159 | 0.0 | 0.0 | 0.00 | 0.02 | 0.02 | 87 | 1009.7 |
| 20260505195725 | 53 | 159 | 0.0 | 0.0 | 0.00 | 0.02 | 0.02 | 87 | 1009.6 |
| 20260505195234 | 53 | 159 | 0.0 | 0.0 | 0.00 | 0.02 | 0.02 | 87 | 1009.6 |
| 20260505194729 | 53 | 159 | 0.0 | 0.0 | 0.00 | 0.02 | 0.02 | 87 | 1009.6 |
| 20260505194224 | 53 | 159 | 0.0 | 0.0 | 0.00 | 0.02 | 0.02 | 86 | 1009.5 |
| 20260505193726 | 53 | 159 | 0.0 | 0.0 | 0.00 | 0.02 | 0.02 | 86 | 1009.5 |
| 20260505193225 | 54 | 159 | 0.0 | 0.0 | 0.00 | 0.02 | 0.02 | 86 | 1009.5 |
| 20260505192723 | 54 | 159 | 0.0 | 0.0 | 0.00 | 0.02 | 0.02 | 86 | 1009.5 |
| 20260505192224 | 54 | 161 | 0.0 | 0.0 | 0.00 | 0.02 | 0.02 | 85 | 1009.5 |
| 20260505191723 | 54 | 161 | 0.0 | 0.0 | 0.00 | 0.02 | 0.02 | 85 | 1009.3 |
| 20260505191223 | 55 | 161 | 0.0 | 0.0 | 0.00 | 0.02 | 0.02 | 85 | 1009.2 |
| 20260505190725 | 55 | 161 | 0.0 | 0.0 | 0.00 | 0.02 | 0.02 | 84 | 1009.2 |
| 20260505190221 | 55 | 161 | 0.0 | 0.0 | 0.00 | 0.02 | 0.02 | 84 | 1009.0 |
| 20260505185734 | 56 | 161 | 0.0 | 0.0 | 0.00 | 0.02 | 0.02 | 83 | 1008.9 |
| 20260505185229 | 56 | 161 | 0.0 | 0.0 | 0.00 | 0.02 | 0.02 | 83 | 1008.9 |
| 20260505184715 | 56 | 161 | 0.0 | 0.0 | 0.00 | 0.02 | 0.02 | 82 | 1008.9 |
| 20260505184233 | 57 | 161 | 0.0 | 0.0 | 0.00 | 0.02 | 0.02 | 81 | 1008.9 |
| 20260505183727 | 58 | 161 | 0.0 | 0.0 | 0.00 | 0.02 | 0.02 | 80 | 1008.9 |
| 20260505183229 | 58 | 161 | 0.0 | 0.0 | 0.00 | 0.02 | 0.02 | 79 | 1008.9 |
| 20260505182721 | 58 | 161 | 0.0 | 0.0 | 0.00 | 0.02 | 0.02 | 78 | 1008.9 |
| 20260505182225 | 59 | 161 | 0.0 | 0.0 | 0.00 | 0.02 | 0.02 | 77 | 1008.9 |
| 20260505181725 | 59 | 161 | 0.0 | 4.3 | 0.00 | 0.02 | 0.02 | 77 | 1008.9 |
| 20260505181223 | 59 | 161 | 2.6 | 4.3 | 0.00 | 0.02 | 0.02 | 77 | 1008.9 |
| 20260505180717 | 59 | 161 | 2.6 | 4.3 | 0.00 | 0.02 | 0.02 | 76 | 1009.0 |
| 20260505180227 | 60 | 161 | 0.0 | 0.0 | 0.00 | 0.02 | 0.02 | 76 | 1009.0 |
| 20260505175722 | 60 | 161 | 0.0 | 1.7 | 0.00 | 0.02 | 0.02 | 78 | 1008.9 |
| 20260505175233 | 59 | 161 | 0.9 | 5.2 | 0.00 | 0.02 | 0.02 | 78 | 1008.9 |
| 20260505174730 | 59 | 161 | 2.6 | 5.2 | 0.00 | 0.02 | 0.02 | 79 | 1008.9 |
| 20260505174224 | 59 | 155 | 0.0 | 0.0 | 0.00 | 0.02 | 0.02 | 80 | 1009.0 |
| 20260505173722 | 58 | 155 | 0.0 | 0.0 | 0.00 | 0.02 | 0.02 | 80 | 1009.0 |
| 20260505173215 | 58 | 154 | 0.0 | 0.0 | 0.00 | 0.02 | 0.02 | 80 | 1009.0 |
| 20260505172719 | 58 | 159 | 0.0 | 0.0 | 0.00 | 0.02 | 0.02 | 81 | 1009.0 |
| 20260505172216 | 58 | 146 | 0.0 | 0.0 | 0.00 | 0.02 | 0.02 | 82 | 1008.9 |
| 20260505171734 | 57 | 145 | 0.0 | 0.0 | 0.00 | 0.02 | 0.02 | 82 | 1008.8 |
| 20260505171229 | 57 | 145 | 0.0 | 0.0 | 0.00 | 0.02 | 0.02 | 82 | 1008.7 |
| 20260505170728 | 57 | 144 | 0.0 | 0.0 | 0.00 | 0.02 | 0.02 | 82 | 1008.7 |
| 20260505170229 | 57 | 144 | 0.0 | 0.0 | 0.00 | 0.02 | 0.02 | 82 | 1008.7 |
| 20260505165731 | 57 | 144 | 0.0 | 0.0 | 0.00 | 0.02 | 0.02 | 82 | 1008.8 |
| 20260505165230 | 57 | 143 | 0.0 | 0.0 | 0.00 | 0.02 | 0.02 | 82 | 1008.7 |
| 20260505164730 | 57 | 143 | 0.0 | 0.0 | 0.00 | 0.02 | 0.02 | 82 | 1008.7 |
| 20260505164229 | 57 | 143 | 0.0 | 0.0 | 0.00 | 0.02 | 0.02 | 82 | 1008.7 |
| 20260505163728 | 57 | 143 | 0.0 | 0.0 | 0.00 | 0.02 | 0.02 | 81 | 1008.8 |
| 20260505163227 | 57 | 143 | 0.0 | 0.0 | 0.00 | 0.02 | 0.02 | 81 | 1008.8 |
| 20260505162727 | 57 | 143 | 0.0 | 0.0 | 0.00 | 0.02 | 0.02 | 80 | 1008.9 |
| 20260505162213 | 57 | 142 | 0.0 | 0.0 | 0.00 | 0.02 | 0.02 | 80 | 1008.8 |
| 20260505161716 | 57 | 154 | 0.0 | 1.7 | 0.00 | 0.02 | 0.02 | 80 | 1008.9 |
| 20260505161215 | 57 | 152 | 0.9 | 1.7 | 0.00 | 0.02 | 0.02 | 80 | 1009.0 |
| 20260505160716 | 57 | 147 | 0.0 | 0.0 | 0.00 | 0.00 | 0.02 | 81 | 1008.9 |
| 20260505160229 | 57 | 155 | 0.0 | 0.0 | 0.00 | 0.00 | 0.02 | 80 | 1008.9 |